Time;durP1;ratioP1;P1;durP2;ratioP2;P2;SDS_P1;SDS_P2;PMS_P1;PMS_P2;Temp;Humidity;BMP_temperature;BMP_pressure;BME280_temperature;BME280_humidity;BME280_pressure;Samples;Min_cycle;Max_cycle;Signal;HPM_P1;HPM_P2
2023/01/11 00:01:09;;;;;;;1.70;0.80;;;7.30;99.90;;;;;;5031791;28;20124;-59
2023/01/11 00:03:34;;;;;;;2.30;0.67;;;7.40;99.90;;;;;;5031890;28;20056;-58
2023/01/11 00:06:00;;;;;;;1.00;0.60;;;7.40;99.90;;;;;;5031688;28;20116;-59
2023/01/11 00:08:27;;;;;;;1.20;0.60;;;7.40;99.90;;;;;;5030028;28;20041;-59
2023/01/11 00:10:53;;;;;;;2.07;0.60;;;7.40;99.90;;;;;;5031273;28;20026;-59
2023/01/11 00:13:19;;;;;;;1.80;0.63;;;7.40;99.90;;;;;;5031706;28;20026;-59
2023/01/11 00:15:45;;;;;;;1.63;0.60;;;7.40;99.90;;;;;;5030581;28;20033;-58
2023/01/11 00:18:11;;;;;;;1.57;0.60;;;7.40;99.90;;;;;;5031213;28;20031;-58
2023/01/11 00:20:40;;;;;;;0.90;0.40;;;7.50;99.90;;;;;;5031177;28;20103;-58
2023/01/11 00:23:06;;;;;;;1.30;0.50;;;7.60;99.90;;;;;;5031520;28;20057;-58
2023/01/11 00:25:31;;;;;;;5.23;2.47;;;7.60;99.90;;;;;;5031305;28;20065;-59
2023/01/11 00:27:57;;;;;;;2.47;0.70;;;7.70;99.90;;;;;;5031129;28;20030;-58
2023/01/11 00:30:23;;;;;;;0.80;0.60;;;7.70;99.90;;;;;;5031116;28;20025;-58
2023/01/11 00:32:54;;;;;;;1.77;0.60;;;7.70;99.90;;;;;;5031043;28;20022;-58
2023/01/11 00:35:19;;;;;;;1.37;0.60;;;7.80;99.90;;;;;;5031125;28;20041;-58
2023/01/11 00:37:45;;;;;;;2.03;0.50;;;7.80;99.90;;;;;;5030927;28;20026;-58
2023/01/11 00:40:11;;;;;;;1.43;0.60;;;7.80;99.90;;;;;;5030828;28;20053;-58
2023/01/11 00:48:07;;;;;;;1.10;0.40;;;7.90;99.90;;;;;;5030723;28;20052;-58
2023/01/11 00:50:35;;;;;;;1.20;0.47;;;7.90;99.90;;;;;;5030733;28;20025;-58
2023/01/11 00:53:01;;;;;;;0.70;0.50;;;8.00;99.90;;;;;;5030828;28;20621;-58
2023/01/11 00:55:27;;;;;;;1.83;0.40;;;8.00;99.90;;;;;;5030815;28;20041;-58
2023/01/11 00:57:53;;;;;;;1.00;0.40;;;8.00;99.90;;;;;;5030441;28;20025;-58
2023/01/11 01:00:20;;;;;;;1.17;0.50;;;8.00;99.90;;;;;;5030694;28;20394;-58
2023/01/11 01:02:46;;;;;;;0.97;0.50;;;8.00;99.90;;;;;;5030685;28;20386;-57
2023/01/11 01:05:12;;;;;;;0.93;0.40;;;8.00;99.90;;;;;;5030760;28;20055;-57
2023/01/11 01:07:38;;;;;;;1.13;0.50;;;8.10;99.90;;;;;;5030375;28;20040;-57
2023/01/11 01:10:04;;;;;;;2.27;0.70;;;8.10;99.90;;;;;;5030398;28;20037;-57
2023/01/11 01:15:14;;;;;;;1.07;0.50;;;8.10;99.90;;;;;;5030648;28;20030;-57
2023/01/11 01:17:40;;;;;;;1.80;0.60;;;8.10;99.90;;;;;;5030380;28;20034;-58
2023/01/11 01:20:06;;;;;;;2.57;0.50;;;8.20;99.90;;;;;;5030292;28;20021;-58
2023/01/11 01:22:32;;;;;;;2.90;1.00;;;8.20;99.90;;;;;;5030498;28;20025;-57
2023/01/11 01:24:58;;;;;;;1.57;0.83;;;8.20;99.90;;;;;;5030382;28;20474;-58
2023/01/11 01:27:24;;;;;;;1.40;0.60;;;8.30;99.90;;;;;;5030063;28;20037;-57
2023/01/11 01:29:50;;;;;;;0.40;0.30;;;8.30;99.90;;;;;;5030184;28;20095;-57
2023/01/11 01:32:15;;;;;;;1.47;0.50;;;8.30;99.90;;;;;;5030510;28;20029;-58
2023/01/11 01:34:41;;;;;;;1.00;0.50;;;8.40;99.90;;;;;;5030514;28;20025;-57
2023/01/11 01:37:09;;;;;;;1.00;0.43;;;8.40;99.90;;;;;;5030416;28;20030;-58
2023/01/11 01:39:34;;;;;;;2.07;0.40;;;8.40;99.90;;;;;;5030137;28;20390;-58
2023/01/11 01:42:00;;;;;;;1.00;0.40;;;8.40;99.90;;;;;;5030325;28;20030;-57
2023/01/11 01:44:57;;;;;;;0.97;0.30;;;8.50;99.90;;;;;;5030299;28;20048;-57
2023/01/11 01:47:53;;;;;;;0.67;0.30;;;8.50;99.90;;;;;;5030144;28;20025;-57
2023/01/11 01:50:27;;;;;;;0.27;0.27;;;8.50;99.90;;;;;;5016660;28;20038;-58
2023/01/11 01:52:57;;;;;;;0.87;0.43;;;8.60;99.90;;;;;;5030255;28;20104;-57
2023/01/11 01:55:32;;;;;;;1.10;0.40;;;8.60;99.90;;;;;;5030091;28;20478;-57
2023/01/11 01:58:01;;;;;;;1.70;0.50;;;8.50;99.90;;;;;;5029998;28;20061;-58
2023/01/11 02:00:26;;;;;;;1.10;0.63;;;8.50;99.90;;;;;;5030002;28;20036;-57
2023/01/11 02:02:54;;;;;;;0.90;0.57;;;8.40;99.90;;;;;;5028825;28;20100;-58
2023/01/11 02:05:20;;;;;;;1.77;0.50;;;8.40;99.90;;;;;;5030225;28;20434;-57
2023/01/11 02:07:46;;;;;;;1.47;0.50;;;8.30;99.90;;;;;;5029644;28;20057;-57
2023/01/11 02:10:20;;;;;;;1.83;0.60;;;8.30;99.90;;;;;;5029977;28;20064;-57
2023/01/11 02:12:58;;;;;;;0.80;0.60;;;8.30;99.90;;;;;;5030055;28;20025;-58
2023/01/11 02:15:24;;;;;;;1.47;0.90;;;8.20;99.90;;;;;;5030123;28;20069;-57
2023/01/11 02:17:50;;;;;;;1.00;0.70;;;8.20;99.90;;;;;;5029717;28;20475;-58
2023/01/11 02:20:47;;;;;;;0.60;0.53;;;8.20;99.90;;;;;;5029741;28;20029;-58
2023/01/11 02:23:30;;;;;;;0.93;0.70;;;8.20;99.90;;;;;;5029863;28;20037;-57
2023/01/11 02:26:11;;;;;;;1.40;0.80;;;8.10;99.90;;;;;;5029978;28;20394;-57
2023/01/11 02:28:42;;;;;;;1.43;0.60;;;8.10;99.90;;;;;;5029327;28;20046;-58
2023/01/11 02:31:14;;;;;;;2.37;0.90;;;8.10;99.90;;;;;;5029837;28;20037;-58
2023/01/11 02:33:46;;;;;;;1.67;0.70;;;8.10;99.90;;;;;;5029789;28;20037;-58
2023/01/11 02:36:33;;;;;;;1.43;0.80;;;8.10;99.90;;;;;;5029796;28;20025;-58
2023/01/11 02:39:21;;;;;;;1.27;0.70;;;8.10;99.90;;;;;;5031157;28;20449;-57
2023/01/11 02:45:04;;;;;;;1.40;1.07;;;8.20;99.90;;;;;;5032906;28;20409;-58
2023/01/11 02:47:46;;;;;;;2.45;0.80;;;8.20;99.90;;;;;;5032961;28;20056;-58
2023/01/11 02:50:37;;;;;;;2.60;0.80;;;8.20;99.90;;;;;;5033080;28;20025;-58
2023/01/11 02:53:09;;;;;;;1.97;0.80;;;8.20;99.90;;;;;;5033059;28;20120;-58
2023/01/11 02:55:42;;;;;;;1.40;0.70;;;8.20;99.90;;;;;;5033004;28;20099;-58
2023/01/11 02:58:11;;;;;;;2.47;0.80;;;8.30;99.90;;;;;;5033101;28;20025;-58
2023/01/11 03:00:39;;;;;;;2.53;0.65;;;8.30;99.90;;;;;;5033100;28;20034;-57
2023/01/11 03:03:12;;;;;;;0.77;0.60;;;8.30;99.90;;;;;;5032989;28;20030;-58
2023/01/11 03:05:49;;;;;;;0.80;0.60;;;8.20;99.90;;;;;;5032927;28;20041;-58
2023/01/11 03:08:33;;;;;;;2.47;1.00;;;8.30;99.90;;;;;;5043595;22;20051;-55
2023/01/11 03:11:04;;;;;;;2.57;0.80;;;8.20;99.90;;;;;;5032725;28;20033;-53
2023/01/11 03:13:48;;;;;;;1.97;0.70;;;8.20;99.90;;;;;;5032896;28;20694;-51
2023/01/11 03:16:51;;;;;;;1.67;0.80;;;8.20;99.90;;;;;;5032505;28;20029;-54
2023/01/11 03:19:40;;;;;;;3.10;0.80;;;8.30;99.90;;;;;;5046324;28;20125;-53
2023/01/11 03:22:10;;;;;;;2.35;1.10;;;8.30;99.90;;;;;;5052553;28;20118;-53
2023/01/11 03:24:54;;;;;;;1.60;0.70;;;8.40;99.90;;;;;;5052952;28;20037;-53
2023/01/11 03:27:43;;;;;;;1.27;0.70;;;8.40;99.90;;;;;;5051081;28;20485;-53
2023/01/11 03:30:10;;;;;;;;;;;8.40;99.90;;;;;;5052654;28;20067;-54
2023/01/11 03:32:51;;;;;;;2.67;1.00;;;8.40;99.90;;;;;;5052495;28;20502;-52
2023/01/11 03:35:19;;;;;;;1.23;0.63;;;8.40;99.90;;;;;;5052087;28;20457;-54
2023/01/11 03:38:06;;;;;;;1.50;0.80;;;8.40;99.90;;;;;;5051981;28;20025;-53
2023/01/11 03:40:42;;;;;;;3.30;1.20;;;8.40;99.90;;;;;;5051956;28;20033;-54
2023/01/11 03:43:11;;;;;;;1.33;0.90;;;8.40;99.90;;;;;;5052178;28;20025;-54
2023/01/11 03:46:03;;;;;;;1.30;0.80;;;8.40;99.90;;;;;;5050636;28;20043;-54
2023/01/11 03:48:33;;;;;;;2.90;1.10;;;8.40;99.90;;;;;;5044855;28;20068;-54
2023/01/11 03:51:01;;;;;;;1.70;1.00;;;8.30;99.90;;;;;;5051716;28;20037;-55
2023/01/11 03:53:31;;;;;;;2.37;1.00;;;8.30;99.90;;;;;;5052076;28;20037;-55
2023/01/11 03:55:59;;;;;;;2.10;1.13;;;8.40;99.90;;;;;;5051831;28;20036;-54
2023/01/11 03:58:26;;;;;;;2.20;1.13;;;8.30;99.90;;;;;;5051903;28;20363;-52
2023/01/11 04:00:54;;;;;;;4.23;1.20;;;8.40;99.90;;;;;;5051827;28;20493;-53
2023/01/11 04:03:21;;;;;;;1.50;1.00;;;8.40;99.90;;;;;;5051891;28;20029;-52
2023/01/11 04:05:51;;;;;;;2.73;1.37;;;8.40;99.90;;;;;;5051443;28;20077;-53
2023/01/11 04:08:17;;;;;;;2.83;1.07;;;8.40;99.90;;;;;;5051336;28;20033;-54
2023/01/11 04:10:43;;;;;;;2.17;1.17;;;8.40;99.90;;;;;;5051404;28;20040;-53
2023/01/11 04:13:08;;;;;;;2.40;1.40;;;8.40;99.90;;;;;;5051402;28;20057;-53
2023/01/11 04:15:34;;;;;;;3.00;1.20;;;8.50;99.90;;;;;;5051630;28;20029;-54
2023/01/11 04:18:04;;;;;;;4.33;1.00;;;8.50;99.90;;;;;;5051414;28;20398;-53
2023/01/11 04:20:32;;;;;;;5.23;1.27;;;8.50;99.90;;;;;;5051416;28;20033;-53
2023/01/11 04:22:57;;;;;;;2.73;1.10;;;8.50;99.90;;;;;;5051330;28;20041;-52
2023/01/11 04:25:23;;;;;;;2.23;1.37;;;8.60;99.90;;;;;;5051211;28;20037;-55
2023/01/11 04:27:49;;;;;;;2.87;1.30;;;8.50;99.90;;;;;;5050628;28;20025;-55
2023/01/11 04:30:14;;;;;;;2.77;1.20;;;8.50;99.90;;;;;;5050542;28;20029;-53
2023/01/11 04:32:40;;;;;;;4.03;1.20;;;8.60;99.90;;;;;;5051542;28;20379;-56
2023/01/11 04:35:06;;;;;;;3.50;1.23;;;8.60;99.90;;;;;;5051071;28;20044;-55
2023/01/11 04:37:32;;;;;;;4.67;1.50;;;8.60;99.90;;;;;;5051340;28;20032;-56
2023/01/11 04:39:57;;;;;;;2.63;1.23;;;8.70;99.90;;;;;;5050598;28;20113;-55
2023/01/11 04:42:24;;;;;;;4.13;1.40;;;8.70;99.90;;;;;;5035004;28;20037;-55
2023/01/11 04:44:51;;;;;;;4.10;1.40;;;8.80;99.90;;;;;;5047793;28;20474;-56
2023/01/11 04:47:19;;;;;;;3.83;1.30;;;8.80;99.90;;;;;;5049481;28;20099;-54
2023/01/11 04:49:45;;;;;;;4.63;1.13;;;8.90;99.90;;;;;;5048830;28;20037;-57
2023/01/11 04:52:13;;;;;;;2.10;1.17;;;8.90;99.90;;;;;;5049606;28;20208;-55
2023/01/11 04:54:39;;;;;;;2.97;1.07;;;9.00;99.90;;;;;;5048843;28;20124;-57
2023/01/11 04:57:05;;;;;;;1.93;1.13;;;9.00;99.90;;;;;;5047997;28;20029;-55
2023/01/11 04:59:31;;;;;;;2.57;1.30;;;9.10;99.90;;;;;;5048598;28;20517;-56
2023/01/11 05:01:57;;;;;;;3.50;1.37;;;9.10;99.90;;;;;;5048269;28;20111;-55
2023/01/11 05:04:23;;;;;;;2.30;1.23;;;9.10;99.90;;;;;;5048996;28;20079;-56
2023/01/11 05:06:48;;;;;;;3.37;1.40;;;9.20;99.90;;;;;;5048310;28;20546;-55
2023/01/11 05:09:16;;;;;;;3.60;1.20;;;9.20;99.90;;;;;;5049322;28;20037;-57
2023/01/11 05:11:42;;;;;;;3.63;1.20;;;9.20;99.90;;;;;;5046993;28;20029;-57
2023/01/11 05:14:08;;;;;;;3.40;1.20;;;9.20;99.90;;;;;;5048912;28;20032;-56
2023/01/11 05:16:34;;;;;;;4.17;1.37;;;9.20;99.90;;;;;;5048488;28;20033;-57
2023/01/11 05:19:00;;;;;;;3.20;1.20;;;9.20;99.90;;;;;;5049022;28;20036;-57
2023/01/11 05:21:30;;;;;;;3.00;1.30;;;9.30;99.90;;;;;;5048607;28;20037;-57
2023/01/11 05:23:57;;;;;;;;;;;9.30;99.90;;;;;;5049666;28;20086;-58
2023/01/11 05:26:26;;;;;;;2.90;1.20;;;9.30;99.90;;;;;;5048730;28;19913;-58
2023/01/11 05:28:54;;;;;;;4.23;1.70;;;9.40;99.90;;;;;;5047665;28;20098;-58
2023/01/11 05:31:21;;;;;;;6.00;2.07;;;9.40;99.90;;;;;;5048424;28;20039;-58
2023/01/11 05:33:47;;;;;;;4.47;2.10;;;9.50;99.90;;;;;;5048352;28;20028;-58
2023/01/11 05:36:18;;;;;;;5.57;2.40;;;9.50;99.90;;;;;;5048825;28;20099;-58
2023/01/11 05:38:49;;;;;;;5.63;2.33;;;9.50;99.90;;;;;;5048182;28;20121;-58
2023/01/11 05:41:15;;;;;;;3.90;2.10;;;9.50;99.90;;;;;;5048666;28;20478;-58
2023/01/11 05:46:29;;;;;;;6.40;3.07;;;9.50;99.90;;;;;;5048229;28;20036;-58
2023/01/11 05:48:55;;;;;;;4.70;2.67;;;9.50;99.90;;;;;;5048008;28;20028;-57
2023/01/11 05:51:21;;;;;;;9.27;3.97;;;9.50;99.90;;;;;;5048510;28;20124;-57
2023/01/11 05:53:47;;;;;;;4.97;2.40;;;9.50;99.90;;;;;;5048642;28;20068;-57
2023/01/11 05:56:13;;;;;;;5.47;2.40;;;9.50;99.90;;;;;;5048617;28;20063;-58
2023/01/11 05:58:39;;;;;;;6.77;3.27;;;9.60;99.90;;;;;;5045481;28;20347;-58
2023/01/11 06:01:04;;;;;;;8.13;3.13;;;9.60;99.90;;;;;;5046364;28;20025;-58
2023/01/11 06:03:30;;;;;;;5.00;2.57;;;9.60;99.90;;;;;;5046624;28;20443;-58
2023/01/11 06:05:58;;;;;;;7.70;3.03;;;9.60;99.90;;;;;;5048691;28;20063;-58
2023/01/11 06:08:23;;;;;;;8.93;3.40;;;9.60;99.90;;;;;;5047071;28;20089;-58
2023/01/11 06:10:50;;;;;;;11.57;3.50;;;9.60;99.90;;;;;;5047810;28;20112;-58
2023/01/11 06:13:25;;;;;;;7.60;2.90;;;9.60;99.90;;;;;;5047820;28;20430;-58
2023/01/11 06:15:54;;;;;;;10.03;3.50;;;9.60;99.90;;;;;;5052041;28;20140;-58
2023/01/11 06:18:20;;;;;;;14.67;4.40;;;9.60;99.90;;;;;;5051402;28;20032;-58
2023/01/11 06:20:49;;;;;;;7.17;3.20;;;9.60;99.90;;;;;;5052025;28;20025;-57
2023/01/11 06:23:16;;;;;;;4.30;2.37;;;9.70;99.90;;;;;;5051843;28;20025;-58
2023/01/11 06:25:42;;;;;;;7.33;2.80;;;9.70;99.90;;;;;;5052213;28;20401;-58
2023/01/11 06:28:07;;;;;;;4.83;2.60;;;9.70;99.90;;;;;;5050139;28;20112;-58
2023/01/11 06:30:33;;;;;;;5.43;2.70;;;9.70;99.90;;;;;;5051908;28;20341;-58
2023/01/11 06:33:05;;;;;;;5.83;2.90;;;9.70;99.90;;;;;;5050598;28;20055;-58
2023/01/11 06:35:40;;;;;;;7.23;3.50;;;9.70;99.90;;;;;;5050831;28;20033;-58
2023/01/11 06:38:07;;;;;;;5.80;3.27;;;9.70;99.90;;;;;;5051022;28;20490;-58
2023/01/11 06:40:34;;;;;;;7.73;3.43;;;9.70;99.90;;;;;;5051316;28;20128;-58
2023/01/11 06:43:00;;;;;;;7.53;3.70;;;9.70;99.90;;;;;;5050224;28;20116;-56
2023/01/11 06:45:26;;;;;;;8.37;3.70;;;9.80;99.90;;;;;;5051594;28;20044;-60
2023/01/11 06:47:52;;;;;;;6.53;3.13;;;9.80;99.90;;;;;;5050963;28;20029;-61
2023/01/11 06:50:18;;;;;;;7.57;3.50;;;9.80;99.90;;;;;;5051244;28;20507;-58
2023/01/11 06:52:54;;;;;;;10.90;4.07;;;9.80;99.90;;;;;;5051220;28;20090;-57
2023/01/11 06:55:20;;;;;;;7.53;3.80;;;9.80;99.90;;;;;;5051184;28;20037;-54
2023/01/11 06:57:47;;;;;;;6.73;2.93;;;9.80;99.90;;;;;;5049639;28;20033;-57
2023/01/11 07:00:13;;;;;;;6.77;2.90;;;9.80;99.90;;;;;;5051102;28;20029;-58
2023/01/11 07:02:39;;;;;;;8.80;3.17;;;9.80;99.90;;;;;;5050822;28;20434;-58
2023/01/11 07:05:04;;;;;;;9.73;3.33;;;10.00;99.90;;;;;;5051132;28;20036;-58
2023/01/11 07:07:30;;;;;;;10.10;4.30;;;10.00;99.90;;;;;;5050387;28;20060;-58
2023/01/11 07:09:56;;;;;;;12.93;5.40;;;10.10;99.90;;;;;;5051317;28;20532;-54
2023/01/11 07:12:22;;;;;;;10.13;5.77;;;10.20;99.90;;;;;;5054763;28;20109;-53
2023/01/11 07:14:48;;;;;;;9.33;5.07;;;10.20;99.90;;;;;;5063061;28;20029;-53
2023/01/11 07:17:13;;;;;;;8.00;4.43;;;10.40;99.90;;;;;;5066699;28;20021;-52
2023/01/11 07:19:39;;;;;;;10.23;4.07;;;10.50;99.90;;;;;;5050447;28;20441;-59
2023/01/11 07:22:05;;;;;;;4.37;2.27;;;10.50;99.90;;;;;;5050373;28;20025;-58
2023/01/11 07:24:30;;;;;;;5.93;3.33;;;10.60;99.90;;;;;;5038999;28;20026;-61
2023/01/11 07:26:58;;;;;;;5.17;2.30;;;10.60;99.90;;;;;;5036182;28;20086;-62
2023/01/11 07:29:24;;;;;;;3.50;1.70;;;10.60;99.90;;;;;;5050257;28;20493;-62
2023/01/11 07:31:50;;;;;;;4.33;1.80;;;10.70;99.90;;;;;;5050243;28;20048;-63
2023/01/11 07:34:15;;;;;;;3.73;1.70;;;10.70;99.90;;;;;;5050753;28;20417;-60
2023/01/11 07:36:41;;;;;;;2.77;1.60;;;10.60;99.90;;;;;;5049321;28;20029;-59
2023/01/11 07:39:07;;;;;;;2.50;1.60;;;10.60;99.90;;;;;;5050247;28;20112;-63
2023/01/11 07:44:16;;;;;;;5.17;2.50;;;10.60;99.90;;;;;;5048406;28;20500;-61
2023/01/11 07:46:42;;;;;;;5.13;2.43;;;10.60;99.90;;;;;;5040324;28;20033;-61
2023/01/11 07:49:08;;;;;;;4.40;2.47;;;10.60;99.90;;;;;;5043856;28;20037;-61
2023/01/11 07:51:33;;;;;;;4.83;2.30;;;10.60;99.90;;;;;;5046517;28;20052;-61
2023/01/11 07:54:02;;;;;;;6.90;3.00;;;10.60;99.90;;;;;;5046357;28;20062;-61
2023/01/11 07:56:29;;;;;;;4.65;2.80;;;10.70;99.90;;;;;;5045167;28;20056;-61
2023/01/11 07:58:55;;;;;;;6.00;2.70;;;10.70;99.90;;;;;;5045540;28;20059;-61
2023/01/11 08:01:22;;;;;;;5.47;2.70;;;10.60;99.90;;;;;;5046661;28;20029;-61
2023/01/11 08:03:48;;;;;;;5.43;3.20;;;10.60;99.90;;;;;;5046808;28;20473;-60
2023/01/11 08:06:14;;;;;;;6.77;3.10;;;10.60;99.90;;;;;;5045197;28;20041;-60
2023/01/11 08:08:40;;;;;;;5.47;3.30;;;10.60;99.90;;;;;;5045475;28;20033;-60
2023/01/11 08:16:35;;;;;;;7.97;3.40;;;10.70;99.90;;;;;;5045547;28;20044;-60
2023/01/11 08:19:01;;;;;;;7.63;4.57;;;10.70;99.90;;;;;;5046562;28;20021;-61
2023/01/11 08:21:27;;;;;;;7.90;3.70;;;10.60;99.90;;;;;;5045336;28;20036;-60
2023/01/11 08:23:54;;;;;;;5.83;3.70;;;10.60;99.90;;;;;;5046315;28;20116;-59
2023/01/11 08:26:22;;;;;;;8.17;4.27;;;10.60;99.90;;;;;;5045382;28;20111;-60
2023/01/11 08:28:48;;;;;;;7.90;4.00;;;10.60;99.90;;;;;;5044472;28;20029;-63
2023/01/11 08:31:14;;;;;;;9.53;3.90;;;10.70;99.90;;;;;;5046292;28;20393;-66
2023/01/11 08:33:40;;;;;;;9.80;3.33;;;10.60;99.90;;;;;;5046645;28;20037;-59
2023/01/11 08:36:07;;;;;;;10.17;2.93;;;10.50;99.90;;;;;;5044098;28;20040;-59
2023/01/11 08:38:33;;;;;;;8.93;2.97;;;10.50;99.90;;;;;;5046651;28;20037;-59
2023/01/11 08:41:01;;;;;;;11.67;2.83;;;10.50;99.90;;;;;;5045884;28;20238;-59
2023/01/11 08:43:29;;;;;;;15.83;2.90;;;10.40;99.90;;;;;;5046042;28;20041;-59
2023/01/11 08:45:55;;;;;;;11.30;2.10;;;10.30;99.90;;;;;;5041694;28;20036;-59
2023/01/11 08:48:21;;;;;;;14.77;2.60;;;10.30;99.90;;;;;;5042917;28;20035;-59
2023/01/11 08:50:46;;;;;;;17.43;2.67;;;10.30;99.90;;;;;;5044969;28;20033;-59
2023/01/11 08:53:12;;;;;;;17.07;3.53;;;10.20;99.90;;;;;;5045968;28;20107;-59
2023/01/11 08:55:40;;;;;;;15.00;3.00;;;10.20;99.90;;;;;;5044349;28;20039;-61
2023/01/11 08:58:06;;;;;;;16.80;3.10;;;10.10;99.90;;;;;;5044046;28;20028;-61
2023/01/11 09:00:32;;;;;;;17.50;2.97;;;10.10;99.90;;;;;;5046068;28;20029;-63
2023/01/11 09:02:59;;;;;;;17.80;3.43;;;10.00;99.90;;;;;;5045957;28;20109;-60
2023/01/11 09:05:25;;;;;;;22.33;4.07;;;10.00;99.90;;;;;;5044755;28;20044;-59
2023/01/11 09:07:54;;;;;;;19.77;3.50;;;10.00;99.90;;;;;;5043501;28;20029;-65
2023/01/11 09:10:19;;;;;;;22.23;3.37;;;9.90;99.90;;;;;;5045456;28;20547;-62
2023/01/11 09:12:45;;;;;;;22.33;4.00;;;9.90;99.90;;;;;;5043282;28;20038;-63
2023/01/11 09:15:11;;;;;;;20.27;3.97;;;9.90;99.90;;;;;;5044276;28;20463;-62
2023/01/11 09:17:37;;;;;;;17.60;3.70;;;9.80;99.90;;;;;;5043435;28;20424;-61
2023/01/11 09:20:03;;;;;;;16.90;3.60;;;9.80;99.90;;;;;;5044895;28;20037;-62
2023/01/11 09:22:29;;;;;;;19.53;4.10;;;9.80;99.90;;;;;;5044978;28;20136;-63
2023/01/11 09:24:57;;;;;;;20.73;3.80;;;9.80;99.90;;;;;;5043982;28;20049;-63
2023/01/11 09:27:23;;;;;;;26.92;3.65;;;9.80;99.90;;;;;;5042898;28;20452;-63
2023/01/11 09:29:49;;;;;;;19.87;3.63;;;9.80;99.90;;;;;;5043405;28;20037;-62
2023/01/11 09:32:15;;;;;;;23.23;3.63;;;9.80;99.90;;;;;;5045498;28;20036;-63
2023/01/11 09:34:42;;;;;;;17.33;3.13;;;9.80;99.90;;;;;;5045547;28;20115;-62
2023/01/11 09:37:08;;;;;;;23.03;4.33;;;9.80;99.90;;;;;;5043196;28;20132;-63
2023/01/11 09:39:34;;;;;;;19.13;3.53;;;9.70;99.90;;;;;;5046853;28;20178;-63
2023/01/11 09:42:00;;;;;;;20.77;3.93;;;9.80;99.90;;;;;;5044691;28;20405;-62
2023/01/11 09:44:28;;;;;;;21.03;3.57;;;9.80;99.90;;;;;;5046727;28;20033;-63
2023/01/11 09:47:07;;;;;;;23.07;4.17;;;9.70;99.90;;;;;;5043305;28;20033;-63
2023/01/11 09:49:39;;;;;;;23.63;2.97;;;9.80;99.90;;;;;;5049015;28;20426;-63
2023/01/11 09:52:31;;;;;;;20.40;3.07;;;9.80;99.90;;;;;;5049398;28;20076;-62
2023/01/11 09:54:59;;;;;;;19.47;3.30;;;9.80;99.90;;;;;;5047839;28;20036;-63
2023/01/11 09:58:08;;;;;;;19.50;3.63;;;9.90;99.90;;;;;;5047305;28;20033;-62
2023/01/11 10:00:51;;;;;;;20.87;4.50;;;9.80;99.90;;;;;;4986262;28;20109;-62
2023/01/11 10:03:52;;;;;;;21.03;3.20;;;9.80;99.90;;;;;;5042820;28;20392;-62
2023/01/11 10:06:19;;;;;;;18.07;3.03;;;9.90;99.90;;;;;;5047204;28;20037;-62
2023/01/11 10:09:07;;;;;;;13.10;3.30;;;9.80;99.90;;;;;;5048210;28;20112;-63
2023/01/11 10:11:58;;;;;;;20.27;3.70;;;9.80;99.90;;;;;;5047401;28;20029;-63
2023/01/11 10:14:58;;;;;;;19.10;3.80;;;9.90;99.90;;;;;;5049549;28;20139;-62
2023/01/11 10:17:31;;;;;;;20.40;3.70;;;9.80;99.90;;;;;;5048408;28;20090;-63
2023/01/11 10:20:04;;;;;;;25.13;4.40;;;9.90;99.90;;;;;;5049529;28;20029;-63
2023/01/11 10:22:38;;;;;;;20.27;3.20;;;9.90;99.90;;;;;;5047565;28;20033;-62
2023/01/11 10:25:32;;;;;;;23.00;3.03;;;9.90;99.90;;;;;;5047620;28;20167;-63
2023/01/11 10:28:04;;;;;;;19.97;3.17;;;9.90;99.90;;;;;;5046454;28;20036;-66
2023/01/11 10:30:56;;;;;;;18.90;3.33;;;9.90;99.90;;;;;;5048547;28;20029;-69
2023/01/11 10:39:54;;;;;;;19.53;3.30;;;10.00;99.90;;;;;;5033055;28;20394;-58
2023/01/11 10:42:23;;;;;;;20.27;3.40;;;10.10;99.90;;;;;;5046640;28;20124;-58
2023/01/11 10:45:14;;;;;;;15.77;3.00;;;10.10;99.90;;;;;;5049357;28;20051;-58
2023/01/11 10:48:08;;;;;;;21.23;2.97;;;10.20;99.90;;;;;;5047335;28;20122;-59
2023/01/11 10:50:50;;;;;;;17.07;2.70;;;10.20;99.90;;;;;;5048285;28;20048;-58
2023/01/11 10:53:27;;;;;;;17.90;2.77;;;10.20;99.90;;;;;;5047753;28;20489;-58
2023/01/11 10:56:49;;;;;;;19.57;4.00;;;10.20;99.90;;;;;;5047298;28;20055;-58
2023/01/11 10:59:28;;;;;;;12.77;2.30;;;10.30;99.90;;;;;;4967804;28;20049;-58
2023/01/11 11:01:54;;;;;;;19.67;2.95;;;10.50;99.90;;;;;;4969962;28;20039;-58
2023/01/11 11:04:53;;;;;;;16.87;3.37;;;10.50;99.90;;;;;;5004030;28;20050;-58
2023/01/11 11:07:47;;;;;;;15.87;3.20;;;10.80;99.90;;;;;;5030655;28;20029;-58
2023/01/11 11:10:50;;;;;;;17.13;3.03;;;11.00;99.90;;;;;;5031445;28;20133;-58
2023/01/11 11:13:44;;;;;;;21.43;3.60;;;11.20;99.90;;;;;;5023949;28;20044;-59
2023/01/11 11:16:51;;;;;;;14.93;2.67;;;11.10;99.90;;;;;;5031139;28;20117;-59
2023/01/11 11:19:24;;;;;;;15.63;2.90;;;11.40;99.90;;;;;;5064492;28;20043;-59
2023/01/11 11:21:51;;;;;;;18.48;4.28;;;11.60;99.90;;;;;;5070448;28;20386;-58
2023/01/11 11:24:40;;;;;;;15.93;3.38;;;11.80;99.90;;;;;;5071218;28;20349;-59
2023/01/11 11:27:36;;;;;;;18.52;3.65;;;11.70;99.90;;;;;;5069199;28;20033;-59
2023/01/11 11:30:03;;;;;;;18.33;3.40;;;11.60;99.90;;;;;;5070825;28;20215;-59
2023/01/11 11:32:34;;;;;;;19.40;3.75;;;11.50;99.90;;;;;;5070196;28;20040;-59
2023/01/11 11:35:00;;;;;;;18.30;4.00;;;11.40;99.90;;;;;;5070865;28;20037;-58
2023/01/11 11:37:33;;;;;;;18.27;3.45;;;11.30;99.90;;;;;;5069588;28;20077;-59
2023/01/11 11:39:58;;;;;;;15.90;3.63;;;11.10;99.90;;;;;;5070500;28;20025;-59
2023/01/11 11:42:25;;;;;;;13.20;3.83;;;11.20;99.90;;;;;;5069171;28;20492;-58
2023/01/11 11:45:09;;;;;;;12.37;3.27;;;11.10;99.90;;;;;;5070157;28;20033;-58
2023/01/11 11:47:35;;;;;;;18.37;4.00;;;11.10;99.90;;;;;;5062999;28;20400;-58
2023/01/11 11:50:24;;;;;;;14.60;3.83;;;11.00;99.90;;;;;;5032854;28;20037;-58
2023/01/11 11:52:54;;;;;;;14.65;3.20;;;10.90;99.90;;;;;;5029764;28;20029;-58
2023/01/11 11:55:29;;;;;;;12.83;3.30;;;10.80;99.90;;;;;;5039763;28;20765;-57
2023/01/11 11:57:57;;;;;;;12.57;2.93;;;10.80;99.90;;;;;;5044756;28;20124;-57
2023/01/11 12:00:29;;;;;;;12.83;3.00;;;10.90;99.90;;;;;;5045840;28;20117;-56
2023/01/11 12:03:06;;;;;;;12.40;3.47;;;11.00;99.90;;;;;;5045292;28;20528;-58
2023/01/11 12:05:32;;;;;;;12.70;3.10;;;11.30;99.90;;;;;;5045752;28;20039;-57
2023/01/11 12:07:58;;;;;;;11.10;3.30;;;11.30;99.90;;;;;;5045671;28;20028;-58
2023/01/11 12:10:29;;;;;;;14.60;3.50;;;11.20;99.90;;;;;;5045565;28;20486;-58
2023/01/11 12:13:01;;;;;;;14.93;3.10;;;11.30;99.90;;;;;;5045028;28;20029;-58
2023/01/11 12:15:29;;;;;;;11.27;3.50;;;11.40;99.90;;;;;;5044983;28;20124;-57
2023/01/11 12:18:21;;;;;;;16.15;3.50;;;11.40;99.90;;;;;;5045642;28;20098;-58
2023/01/11 12:20:48;;;;;;;13.05;3.55;;;11.60;99.90;;;;;;5044272;28;20485;-58
2023/01/11 12:23:16;;;;;;;12.82;3.42;;;11.70;99.90;;;;;;5045989;28;20045;-59
2023/01/11 12:25:59;;;;;;;12.65;2.55;;;11.90;99.90;;;;;;5045207;28;20405;-58
2023/01/11 12:28:55;;;;;;;16.60;3.00;;;12.10;99.90;;;;;;5044343;28;20121;-57
2023/01/11 12:31:24;;;;;;;13.85;2.90;;;11.90;99.90;;;;;;5044181;28;20033;-58
2023/01/11 12:34:32;;;;;;;14.88;3.08;;;11.80;99.90;;;;;;5045039;28;20056;-58
2023/01/11 12:37:07;;;;;;;16.35;3.45;;;11.80;99.90;;;;;;5033869;28;20397;-58
2023/01/11 12:39:51;;;;;;;15.55;3.25;;;12.10;99.90;;;;;;5046008;28;20399;-57
2023/01/11 12:42:54;;;;;;;17.13;2.97;;;12.70;99.90;;;;;;5044038;28;20477;-58
2023/01/11 12:45:44;;;;;;;9.82;2.47;;;13.80;99.90;;;;;;5043990;28;20033;-58
2023/01/11 12:48:38;;;;;;;11.00;2.58;;;15.10;99.90;;;;;;5044667;28;20028;-58
2023/01/11 12:51:29;;;;;;;11.60;2.63;;;16.20;99.90;;;;;;5041406;28;20045;-58
2023/01/11 12:54:29;;;;;;;10.07;2.42;;;17.20;98.90;;;;;;5044574;28;20486;-59
2023/01/11 12:57:10;;;;;;;8.63;2.70;;;17.10;97.80;;;;;;5043635;28;20075;-59
2023/01/11 12:59:39;;;;;;;12.85;2.58;;;17.20;97.70;;;;;;5045865;28;20455;-62
2023/01/11 13:02:26;;;;;;;10.07;2.53;;;17.50;97.30;;;;;;5045386;28;20393;-59
2023/01/11 13:04:57;;;;;;;10.75;2.58;;;17.40;95.90;;;;;;5044976;28;20025;-58
2023/01/11 13:08:04;;;;;;;12.15;2.53;;;17.30;95.50;;;;;;5043280;28;20032;-58
2023/01/11 13:10:48;;;;;;;12.02;2.55;;;16.90;96.50;;;;;;5045668;28;20128;-58
2023/01/11 13:13:35;;;;;;;12.63;2.83;;;16.00;97.50;;;;;;5043685;28;20519;-58
2023/01/11 13:16:18;;;;;;;14.93;2.47;;;15.10;99.80;;;;;;5045496;28;20049;-58
2023/01/11 13:18:44;;;;;;;11.07;2.78;;;14.60;99.90;;;;;;5043547;28;20037;-58
2023/01/11 13:21:16;;;;;;;13.43;3.22;;;14.20;99.90;;;;;;5046101;28;20146;-58
2023/01/11 13:23:53;;;;;;;15.13;2.78;;;14.20;99.90;;;;;;5043510;28;20021;-57
2023/01/11 13:26:29;;;;;;;11.55;2.85;;;14.60;99.90;;;;;;5044436;28;20033;-56
2023/01/11 13:29:19;;;;;;;20.25;4.25;;;14.60;99.90;;;;;;5043211;28;20071;-57
2023/01/11 13:31:47;;;;;;;13.05;2.67;;;13.80;99.90;;;;;;5044793;28;20053;-57
2023/01/11 13:34:22;;;;;;;18.42;3.47;;;13.30;99.90;;;;;;5047226;28;20037;-60
2023/01/11 13:36:54;;;;;;;18.45;3.65;;;12.90;99.90;;;;;;5045344;28;20060;-62
2023/01/11 13:39:28;;;;;;;13.63;2.75;;;12.10;99.90;;;;;;5027472;28;20083;-61
2023/01/11 13:42:21;;;;;;;16.55;3.00;;;11.90;99.90;;;;;;5026760;28;20560;-61
2023/01/11 13:44:55;;;;;;;14.90;2.67;;;11.70;99.90;;;;;;5028175;28;20457;-61